Terminal Aerodrome Forecast
Issued by NWS Wilmington, OH

Current Version | Previous Version | Text Only | Print | Product List | Glossary Off
Versions: 1 2 3 4 5 6 7 8 9 10 11 12 13 14 15 16 17 18 19 20 21 22 23 24 25 26 27

143
FTUS41 KILN 061459 AAA
TAFCVG
TAF AMD
KCVG 061459Z 0615/0718 35004KT 2SM -RA BR OVC004
     FM061900 30010KT 3SM -DZ BR OVC007
     FM062100 30012G20KT P6SM OVC012
     FM070200 29008KT P6SM OVC015
     FM071200 25005KT P6SM SCT015 BKN120=

USA.gov is the U.S. government's official web portal to all federal, state and local government web resources and services.